sensor_id;sensor_type;location;lat;lon;timestamp;P1;durP1;ratioP1;P2;durP2;ratioP2
83194;SDS011;73090;49.282;11.402;2024-03-02T00:01:27;31.30;;;14.70;;
83194;SDS011;73090;49.282;11.402;2024-03-02T00:05:28;31.38;;;15.15;;
83194;SDS011;73090;49.282;11.402;2024-03-02T00:09:30;29.48;;;12.77;;
83194;SDS011;73090;49.282;11.402;2024-03-02T00:13:32;29.85;;;14.63;;
83194;SDS011;73090;49.282;11.402;2024-03-02T00:17:35;31.42;;;15.38;;
83194;SDS011;73090;49.282;11.402;2024-03-02T00:21:36;29.73;;;14.85;;
83194;SDS011;73090;49.282;11.402;2024-03-02T00:25:42;32.35;;;15.15;;
83194;SDS011;73090;49.282;11.402;2024-03-02T00:29:45;35.13;;;14.35;;
83194;SDS011;73090;49.282;11.402;2024-03-02T00:33:47;32.47;;;15.00;;
83194;SDS011;73090;49.282;11.402;2024-03-02T00:37:49;32.50;;;15.05;;
83194;SDS011;73090;49.282;11.402;2024-03-02T00:41:52;28.63;;;13.55;;
83194;SDS011;73090;49.282;11.402;2024-03-02T00:45:53;32.40;;;14.38;;
83194;SDS011;73090;49.282;11.402;2024-03-02T00:49:55;30.17;;;14.07;;
83194;SDS011;73090;49.282;11.402;2024-03-02T00:54:04;31.90;;;14.45;;
83194;SDS011;73090;49.282;11.402;2024-03-02T00:58:07;28.45;;;13.63;;
83194;SDS011;73090;49.282;11.402;2024-03-02T01:02:09;30.83;;;14.82;;
83194;SDS011;73090;49.282;11.402;2024-03-02T01:06:10;34.72;;;15.13;;
83194;SDS011;73090;49.282;11.402;2024-03-02T01:10:12;33.20;;;15.20;;
83194;SDS011;73090;49.282;11.402;2024-03-02T01:14:14;31.85;;;15.07;;
83194;SDS011;73090;49.282;11.402;2024-03-02T01:18:15;30.98;;;13.98;;
83194;SDS011;73090;49.282;11.402;2024-03-02T01:22:17;35.38;;;13.57;;
83194;SDS011;73090;49.282;11.402;2024-03-02T01:26:24;36.55;;;14.77;;
83194;SDS011;73090;49.282;11.402;2024-03-02T01:30:26;30.20;;;14.40;;
83194;SDS011;73090;49.282;11.402;2024-03-02T01:34:27;31.73;;;15.93;;
83194;SDS011;73090;49.282;11.402;2024-03-02T01:38:29;30.95;;;13.15;;
83194;SDS011;73090;49.282;11.402;2024-03-02T01:42:31;29.88;;;14.88;;
83194;SDS011;73090;49.282;11.402;2024-03-02T01:46:32;31.90;;;12.50;;
83194;SDS011;73090;49.282;11.402;2024-03-02T01:50:34;27.92;;;13.68;;
83194;SDS011;73090;49.282;11.402;2024-03-02T01:54:36;25.77;;;12.75;;
83194;SDS011;73090;49.282;11.402;2024-03-02T01:58:38;29.55;;;13.35;;
83194;SDS011;73090;49.282;11.402;2024-03-02T02:02:39;26.50;;;13.20;;
83194;SDS011;73090;49.282;11.402;2024-03-02T02:06:43;34.03;;;14.10;;
83194;SDS011;73090;49.282;11.402;2024-03-02T02:10:45;33.08;;;14.15;;
83194;SDS011;73090;49.282;11.402;2024-03-02T02:14:47;30.90;;;14.25;;
83194;SDS011;73090;49.282;11.402;2024-03-02T02:18:52;23.80;;;11.90;;
83194;SDS011;73090;49.282;11.402;2024-03-02T02:26:55;25.77;;;11.82;;
83194;SDS011;73090;49.282;11.402;2024-03-02T02:30:57;30.73;;;13.27;;
83194;SDS011;73090;49.282;11.402;2024-03-02T02:34:59;25.48;;;11.80;;
83194;SDS011;73090;49.282;11.402;2024-03-02T02:39:02;24.58;;;11.35;;
83194;SDS011;73090;49.282;11.402;2024-03-02T02:43:04;25.35;;;11.13;;
83194;SDS011;73090;49.282;11.402;2024-03-02T02:47:08;23.55;;;10.38;;
83194;SDS011;73090;49.282;11.402;2024-03-02T02:51:09;25.42;;;11.73;;
83194;SDS011;73090;49.282;11.402;2024-03-02T02:55:11;19.92;;;10.50;;
83194;SDS011;73090;49.282;11.402;2024-03-02T02:59:14;20.10;;;10.90;;
83194;SDS011;73090;49.282;11.402;2024-03-02T03:03:15;21.77;;;9.80;;
83194;SDS011;73090;49.282;11.402;2024-03-02T03:07:17;20.10;;;9.25;;
83194;SDS011;73090;49.282;11.402;2024-03-02T03:11:19;16.40;;;8.32;;
83194;SDS011;73090;49.282;11.402;2024-03-02T03:15:20;20.00;;;8.82;;
83194;SDS011;73090;49.282;11.402;2024-03-02T03:19:22;18.83;;;10.07;;
83194;SDS011;73090;49.282;11.402;2024-03-02T03:23:23;19.95;;;8.38;;
83194;SDS011;73090;49.282;11.402;2024-03-02T03:27:27;17.48;;;7.53;;
83194;SDS011;73090;49.282;11.402;2024-03-02T03:31:29;18.77;;;8.13;;
83194;SDS011;73090;49.282;11.402;2024-03-02T03:35:31;18.10;;;9.27;;
83194;SDS011;73090;49.282;11.402;2024-03-02T03:39:33;18.00;;;8.52;;
83194;SDS011;73090;49.282;11.402;2024-03-02T03:43:36;16.85;;;8.35;;
83194;SDS011;73090;49.282;11.402;2024-03-02T03:47:38;15.27;;;6.70;;
83194;SDS011;73090;49.282;11.402;2024-03-02T03:51:40;16.73;;;7.40;;
83194;SDS011;73090;49.282;11.402;2024-03-02T03:55:41;17.60;;;8.73;;
83194;SDS011;73090;49.282;11.402;2024-03-02T03:59:43;16.98;;;8.82;;
83194;SDS011;73090;49.282;11.402;2024-03-02T04:03:45;20.92;;;9.10;;
83194;SDS011;73090;49.282;11.402;2024-03-02T04:07:47;17.77;;;7.93;;
83194;SDS011;73090;49.282;11.402;2024-03-02T04:11:49;16.27;;;7.70;;
83194;SDS011;73090;49.282;11.402;2024-03-02T04:15:50;14.98;;;8.05;;
83194;SDS011;73090;49.282;11.402;2024-03-02T04:19:52;20.60;;;9.00;;
83194;SDS011;73090;49.282;11.402;2024-03-02T04:23:53;25.40;;;11.23;;
83194;SDS011;73090;49.282;11.402;2024-03-02T04:27:58;21.77;;;10.32;;
83194;SDS011;73090;49.282;11.402;2024-03-02T04:32:00;22.58;;;11.63;;
83194;SDS011;73090;49.282;11.402;2024-03-02T04:36:02;26.70;;;11.30;;
83194;SDS011;73090;49.282;11.402;2024-03-02T04:40:04;26.23;;;11.63;;
83194;SDS011;73090;49.282;11.402;2024-03-02T04:44:09;26.77;;;12.38;;
83194;SDS011;73090;49.282;11.402;2024-03-02T04:48:11;26.65;;;11.27;;
83194;SDS011;73090;49.282;11.402;2024-03-02T04:52:12;22.60;;;10.23;;
83194;SDS011;73090;49.282;11.402;2024-03-02T04:56:14;23.25;;;12.30;;
83194;SDS011;73090;49.282;11.402;2024-03-02T05:00:27;25.70;;;11.90;;
83194;SDS011;73090;49.282;11.402;2024-03-02T05:04:29;28.20;;;11.15;;
83194;SDS011;73090;49.282;11.402;2024-03-02T05:08:31;26.55;;;11.60;;
83194;SDS011;73090;49.282;11.402;2024-03-02T05:12:33;29.67;;;12.02;;
83194;SDS011;73090;49.282;11.402;2024-03-02T05:16:44;23.80;;;11.35;;
83194;SDS011;73090;49.282;11.402;2024-03-02T05:20:45;24.25;;;11.02;;
83194;SDS011;73090;49.282;11.402;2024-03-02T05:24:47;26.92;;;12.38;;
83194;SDS011;73090;49.282;11.402;2024-03-02T05:28:49;25.67;;;11.13;;
83194;SDS011;73090;49.282;11.402;2024-03-02T05:32:50;27.52;;;11.43;;
83194;SDS011;73090;49.282;11.402;2024-03-02T05:36:52;24.85;;;10.93;;
83194;SDS011;73090;49.282;11.402;2024-03-02T05:40:54;28.92;;;12.90;;
83194;SDS011;73090;49.282;11.402;2024-03-02T05:44:56;28.30;;;11.20;;
83194;SDS011;73090;49.282;11.402;2024-03-02T05:48:58;27.52;;;10.93;;
83194;SDS011;73090;49.282;11.402;2024-03-02T05:53:01;25.23;;;10.10;;
83194;SDS011;73090;49.282;11.402;2024-03-02T05:57:02;29.80;;;11.95;;
83194;SDS011;73090;49.282;11.402;2024-03-02T06:01:18;26.95;;;10.98;;
83194;SDS011;73090;49.282;11.402;2024-03-02T06:05:20;30.23;;;12.23;;
83194;SDS011;73090;49.282;11.402;2024-03-02T06:09:22;27.15;;;11.50;;
83194;SDS011;73090;49.282;11.402;2024-03-02T06:13:26;27.42;;;11.43;;
83194;SDS011;73090;49.282;11.402;2024-03-02T06:17:28;28.23;;;11.25;;
83194;SDS011;73090;49.282;11.402;2024-03-02T06:21:32;28.63;;;11.43;;
83194;SDS011;73090;49.282;11.402;2024-03-02T06:25:33;29.20;;;12.15;;
83194;SDS011;73090;49.282;11.402;2024-03-02T06:29:35;28.00;;;11.80;;
83194;SDS011;73090;49.282;11.402;2024-03-02T06:33:38;25.45;;;11.32;;
83194;SDS011;73090;49.282;11.402;2024-03-02T06:37:39;34.72;;;11.85;;
83194;SDS011;73090;49.282;11.402;2024-03-02T06:41:41;29.77;;;12.48;;
83194;SDS011;73090;49.282;11.402;2024-03-02T06:45:48;33.78;;;12.88;;
83194;SDS011;73090;49.282;11.402;2024-03-02T06:49:51;33.00;;;13.25;;
83194;SDS011;73090;49.282;11.402;2024-03-02T06:53:54;34.03;;;14.38;;
83194;SDS011;73090;49.282;11.402;2024-03-02T06:57:56;29.75;;;12.07;;
83194;SDS011;73090;49.282;11.402;2024-03-02T07:01:57;29.25;;;12.30;;
83194;SDS011;73090;49.282;11.402;2024-03-02T07:05:59;32.50;;;13.77;;
83194;SDS011;73090;49.282;11.402;2024-03-02T07:10:02;37.05;;;15.95;;
83194;SDS011;73090;49.282;11.402;2024-03-02T07:14:09;28.85;;;13.10;;
83194;SDS011;73090;49.282;11.402;2024-03-02T07:18:10;32.00;;;15.02;;
83194;SDS011;73090;49.282;11.402;2024-03-02T07:22:12;27.20;;;13.23;;
83194;SDS011;73090;49.282;11.402;2024-03-02T07:26:13;30.67;;;13.25;;
83194;SDS011;73090;49.282;11.402;2024-03-02T07:30:22;26.67;;;12.70;;
83194;SDS011;73090;49.282;11.402;2024-03-02T07:34:24;31.98;;;14.32;;
83194;SDS011;73090;49.282;11.402;2024-03-02T07:38:25;29.83;;;15.15;;
83194;SDS011;73090;49.282;11.402;2024-03-02T07:42:28;27.20;;;13.13;;
83194;SDS011;73090;49.282;11.402;2024-03-02T07:46:30;27.85;;;12.70;;
83194;SDS011;73090;49.282;11.402;2024-03-02T07:50:32;26.67;;;12.27;;
83194;SDS011;73090;49.282;11.402;2024-03-02T07:54:36;26.65;;;13.10;;
83194;SDS011;73090;49.282;11.402;2024-03-02T07:58:37;25.90;;;13.38;;
83194;SDS011;73090;49.282;11.402;2024-03-02T08:02:39;26.88;;;12.75;;
83194;SDS011;73090;49.282;11.402;2024-03-02T08:06:41;27.02;;;12.23;;
83194;SDS011;73090;49.282;11.402;2024-03-02T08:10:43;29.77;;;12.75;;
83194;SDS011;73090;49.282;11.402;2024-03-02T08:14:45;24.60;;;11.70;;
83194;SDS011;73090;49.282;11.402;2024-03-02T08:18:47;23.50;;;11.35;;
83194;SDS011;73090;49.282;11.402;2024-03-02T08:22:49;25.15;;;12.05;;
83194;SDS011;73090;49.282;11.402;2024-03-02T08:26:51;22.98;;;10.90;;
83194;SDS011;73090;49.282;11.402;2024-03-02T08:30:52;26.02;;;12.60;;
83194;SDS011;73090;49.282;11.402;2024-03-02T08:34:54;22.00;;;12.35;;
83194;SDS011;73090;49.282;11.402;2024-03-02T08:38:56;22.20;;;10.48;;
83194;SDS011;73090;49.282;11.402;2024-03-02T08:42:57;23.95;;;12.32;;
83194;SDS011;73090;49.282;11.402;2024-03-02T08:46:59;23.48;;;11.68;;
83194;SDS011;73090;49.282;11.402;2024-03-02T08:51:01;25.08;;;12.05;;
83194;SDS011;73090;49.282;11.402;2024-03-02T08:55:06;20.00;;;10.95;;
83194;SDS011;73090;49.282;11.402;2024-03-02T08:59:08;22.70;;;12.38;;
83194;SDS011;73090;49.282;11.402;2024-03-02T09:03:10;22.20;;;10.80;;
83194;SDS011;73090;49.282;11.402;2024-03-02T09:07:11;21.27;;;10.65;;
83194;SDS011;73090;49.282;11.402;2024-03-02T09:11:13;20.98;;;9.93;;
83194;SDS011;73090;49.282;11.402;2024-03-02T09:15:15;17.80;;;9.40;;
83194;SDS011;73090;49.282;11.402;2024-03-02T09:19:16;16.23;;;9.05;;
83194;SDS011;73090;49.282;11.402;2024-03-02T09:23:18;14.60;;;9.43;;
83194;SDS011;73090;49.282;11.402;2024-03-02T09:27:20;16.50;;;8.65;;
83194;SDS011;73090;49.282;11.402;2024-03-02T09:31:22;19.02;;;9.95;;
83194;SDS011;73090;49.282;11.402;2024-03-02T09:35:23;15.13;;;8.95;;
83194;SDS011;73090;49.282;11.402;2024-03-02T09:39:25;17.00;;;9.23;;
83194;SDS011;73090;49.282;11.402;2024-03-02T09:43:27;17.38;;;9.50;;
83194;SDS011;73090;49.282;11.402;2024-03-02T09:47:29;16.55;;;9.02;;
83194;SDS011;73090;49.282;11.402;2024-03-02T09:51:31;17.60;;;8.88;;
83194;SDS011;73090;49.282;11.402;2024-03-02T09:55:33;18.77;;;10.48;;
83194;SDS011;73090;49.282;11.402;2024-03-02T09:59:34;17.90;;;9.10;;
83194;SDS011;73090;49.282;11.402;2024-03-02T10:03:36;18.60;;;9.35;;
83194;SDS011;73090;49.282;11.402;2024-03-02T10:11:43;20.55;;;9.82;;
83194;SDS011;73090;49.282;11.402;2024-03-02T10:15:44;24.65;;;11.13;;
83194;SDS011;73090;49.282;11.402;2024-03-02T10:19:48;23.75;;;11.98;;
83194;SDS011;73090;49.282;11.402;2024-03-02T10:23:49;25.77;;;12.48;;
83194;SDS011;73090;49.282;11.402;2024-03-02T10:27:51;26.77;;;13.10;;
83194;SDS011;73090;49.282;11.402;2024-03-02T10:31:52;26.25;;;12.52;;
83194;SDS011;73090;49.282;11.402;2024-03-02T10:35:55;27.70;;;13.13;;
83194;SDS011;73090;49.282;11.402;2024-03-02T10:39:58;30.88;;;13.35;;
83194;SDS011;73090;49.282;11.402;2024-03-02T10:44:06;29.35;;;13.80;;
83194;SDS011;73090;49.282;11.402;2024-03-02T10:48:09;28.73;;;12.75;;
83194;SDS011;73090;49.282;11.402;2024-03-02T10:52:11;23.88;;;11.50;;
83194;SDS011;73090;49.282;11.402;2024-03-02T10:56:14;29.20;;;14.07;;
83194;SDS011;73090;49.282;11.402;2024-03-02T11:00:26;23.63;;;11.65;;
83194;SDS011;73090;49.282;11.402;2024-03-02T11:04:34;28.13;;;13.95;;
83194;SDS011;73090;49.282;11.402;2024-03-02T11:08:36;26.60;;;14.52;;
83194;SDS011;73090;49.282;11.402;2024-03-02T11:12:44;30.75;;;14.63;;
83194;SDS011;73090;49.282;11.402;2024-03-02T11:16:54;29.65;;;14.45;;
83194;SDS011;73090;49.282;11.402;2024-03-02T11:20:55;28.63;;;12.85;;
83194;SDS011;73090;49.282;11.402;2024-03-02T11:24:57;27.63;;;12.52;;
83194;SDS011;73090;49.282;11.402;2024-03-02T11:29:00;26.20;;;12.20;;
83194;SDS011;73090;49.282;11.402;2024-03-02T11:33:07;25.45;;;13.40;;
83194;SDS011;73090;49.282;11.402;2024-03-02T11:37:12;25.90;;;11.00;;
83194;SDS011;73090;49.282;11.402;2024-03-02T11:41:15;21.77;;;11.20;;
83194;SDS011;73090;49.282;11.402;2024-03-02T11:45:17;22.08;;;11.27;;
83194;SDS011;73090;49.282;11.402;2024-03-02T11:49:40;25.60;;;11.38;;
83194;SDS011;73090;49.282;11.402;2024-03-02T11:53:43;32.10;;;13.93;;
83194;SDS011;73090;49.282;11.402;2024-03-02T11:57:47;30.80;;;14.45;;
83194;SDS011;73090;49.282;11.402;2024-03-02T12:01:50;26.92;;;13.73;;
83194;SDS011;73090;49.282;11.402;2024-03-02T12:05:54;28.00;;;12.48;;
83194;SDS011;73090;49.282;11.402;2024-03-02T12:10:00;30.27;;;14.05;;
83194;SDS011;73090;49.282;11.402;2024-03-02T12:14:11;30.40;;;14.00;;
83194;SDS011;73090;49.282;11.402;2024-03-02T12:18:14;29.90;;;14.23;;
83194;SDS011;73090;49.282;11.402;2024-03-02T12:22:15;24.00;;;12.90;;
83194;SDS011;73090;49.282;11.402;2024-03-02T12:26:17;29.45;;;12.98;;
83194;SDS011;73090;49.282;11.402;2024-03-02T12:30:19;27.55;;;12.85;;
83194;SDS011;73090;49.282;11.402;2024-03-02T12:34:21;31.02;;;13.10;;
83194;SDS011;73090;49.282;11.402;2024-03-02T12:38:25;34.50;;;15.98;;
83194;SDS011;73090;49.282;11.402;2024-03-02T12:42:27;36.30;;;17.88;;
83194;SDS011;73090;49.282;11.402;2024-03-02T12:46:29;28.65;;;13.15;;
83194;SDS011;73090;49.282;11.402;2024-03-02T12:50:31;29.25;;;13.82;;
83194;SDS011;73090;49.282;11.402;2024-03-02T12:54:33;28.45;;;12.90;;
83194;SDS011;73090;49.282;11.402;2024-03-02T12:58:41;32.35;;;14.48;;
83194;SDS011;73090;49.282;11.402;2024-03-02T13:02:42;35.13;;;16.65;;
83194;SDS011;73090;49.282;11.402;2024-03-02T13:06:44;25.60;;;12.60;;
83194;SDS011;73090;49.282;11.402;2024-03-02T13:10:46;30.90;;;14.05;;
83194;SDS011;73090;49.282;11.402;2024-03-02T13:14:48;26.17;;;11.73;;
83194;SDS011;73090;49.282;11.402;2024-03-02T13:18:52;26.80;;;11.98;;
83194;SDS011;73090;49.282;11.402;2024-03-02T13:22:53;29.55;;;13.55;;
83194;SDS011;73090;49.282;11.402;2024-03-02T13:26:55;24.55;;;12.80;;
83194;SDS011;73090;49.282;11.402;2024-03-02T13:30:59;21.42;;;9.50;;
83194;SDS011;73090;49.282;11.402;2024-03-02T13:35:00;24.38;;;11.27;;
83194;SDS011;73090;49.282;11.402;2024-03-02T13:39:04;28.30;;;12.35;;
83194;SDS011;73090;49.282;11.402;2024-03-02T13:43:07;23.13;;;10.50;;
83194;SDS011;73090;49.282;11.402;2024-03-02T13:47:08;20.77;;;11.23;;
83194;SDS011;73090;49.282;11.402;2024-03-02T13:51:10;28.48;;;11.55;;
83194;SDS011;73090;49.282;11.402;2024-03-02T13:55:12;25.02;;;10.45;;
83194;SDS011;73090;49.282;11.402;2024-03-02T13:59:13;25.98;;;11.52;;
83194;SDS011;73090;49.282;11.402;2024-03-02T14:03:15;21.98;;;10.63;;
83194;SDS011;73090;49.282;11.402;2024-03-02T14:07:17;26.20;;;11.23;;
83194;SDS011;73090;49.282;11.402;2024-03-02T14:11:18;24.33;;;10.82;;
83194;SDS011;73090;49.282;11.402;2024-03-02T14:15:20;24.75;;;10.50;;
83194;SDS011;73090;49.282;11.402;2024-03-02T14:19:22;27.48;;;11.95;;
83194;SDS011;73090;49.282;11.402;2024-03-02T14:23:24;22.75;;;10.55;;
83194;SDS011;73090;49.282;11.402;2024-03-02T14:27:27;23.85;;;12.27;;
83194;SDS011;73090;49.282;11.402;2024-03-02T14:31:48;27.67;;;11.18;;
83194;SDS011;73090;49.282;11.402;2024-03-02T14:35:50;24.67;;;14.25;;
83194;SDS011;73090;49.282;11.402;2024-03-02T14:39:51;28.15;;;11.75;;
83194;SDS011;73090;49.282;11.402;2024-03-02T14:43:53;23.67;;;9.90;;
83194;SDS011;73090;49.282;11.402;2024-03-02T14:47:55;21.85;;;9.77;;
83194;SDS011;73090;49.282;11.402;2024-03-02T14:52:00;24.92;;;10.95;;
83194;SDS011;73090;49.282;11.402;2024-03-02T14:56:02;21.70;;;11.40;;
83194;SDS011;73090;49.282;11.402;2024-03-02T15:00:04;25.67;;;12.30;;
83194;SDS011;73090;49.282;11.402;2024-03-02T15:08:11;26.17;;;12.18;;
83194;SDS011;73090;49.282;11.402;2024-03-02T15:12:12;23.25;;;10.60;;
83194;SDS011;73090;49.282;11.402;2024-03-02T15:16:15;23.73;;;12.00;;
83194;SDS011;73090;49.282;11.402;2024-03-02T15:20:17;24.48;;;10.13;;
83194;SDS011;73090;49.282;11.402;2024-03-02T15:24:19;24.00;;;11.05;;
83194;SDS011;73090;49.282;11.402;2024-03-02T15:28:20;26.10;;;10.60;;
83194;SDS011;73090;49.282;11.402;2024-03-02T15:32:22;25.33;;;10.13;;
83194;SDS011;73090;49.282;11.402;2024-03-02T15:36:24;26.85;;;10.93;;
83194;SDS011;73090;49.282;11.402;2024-03-02T15:40:25;27.83;;;11.18;;
83194;SDS011;73090;49.282;11.402;2024-03-02T15:44:27;24.13;;;12.05;;
83194;SDS011;73090;49.282;11.402;2024-03-02T15:48:28;28.45;;;11.85;;
83194;SDS011;73090;49.282;11.402;2024-03-02T15:52:30;27.17;;;12.32;;
83194;SDS011;73090;49.282;11.402;2024-03-02T15:56:32;27.42;;;12.15;;
83194;SDS011;73090;49.282;11.402;2024-03-02T16:00:33;29.23;;;13.60;;
83194;SDS011;73090;49.282;11.402;2024-03-02T16:04:36;28.63;;;11.63;;
83194;SDS011;73090;49.282;11.402;2024-03-02T16:08:38;24.63;;;10.90;;
83194;SDS011;73090;49.282;11.402;2024-03-02T16:12:40;29.48;;;12.15;;
83194;SDS011;73090;49.282;11.402;2024-03-02T16:16:42;31.25;;;12.82;;
83194;SDS011;73090;49.282;11.402;2024-03-02T16:20:44;23.75;;;11.20;;
83194;SDS011;73090;49.282;11.402;2024-03-02T16:24:45;24.42;;;11.75;;
83194;SDS011;73090;49.282;11.402;2024-03-02T16:28:47;28.42;;;13.93;;
83194;SDS011;73090;49.282;11.402;2024-03-02T16:32:49;27.77;;;12.30;;
83194;SDS011;73090;49.282;11.402;2024-03-02T16:36:50;27.67;;;12.38;;
83194;SDS011;73090;49.282;11.402;2024-03-02T16:40:53;26.75;;;11.43;;
83194;SDS011;73090;49.282;11.402;2024-03-02T16:44:58;25.65;;;13.05;;
83194;SDS011;73090;49.282;11.402;2024-03-02T16:48:59;25.63;;;11.70;;
83194;SDS011;73090;49.282;11.402;2024-03-02T16:53:01;27.95;;;11.52;;
83194;SDS011;73090;49.282;11.402;2024-03-02T16:57:04;30.83;;;14.88;;
83194;SDS011;73090;49.282;11.402;2024-03-02T17:01:06;24.05;;;11.82;;
83194;SDS011;73090;49.282;11.402;2024-03-02T17:05:07;20.55;;;8.10;;
83194;SDS011;73090;49.282;11.402;2024-03-02T17:09:09;22.60;;;9.65;;
83194;SDS011;73090;49.282;11.402;2024-03-02T17:13:11;20.98;;;8.90;;
83194;SDS011;73090;49.282;11.402;2024-03-02T17:17:12;22.75;;;10.38;;
83194;SDS011;73090;49.282;11.402;2024-03-02T17:21:15;22.55;;;9.88;;
83194;SDS011;73090;49.282;11.402;2024-03-02T17:25:17;18.17;;;8.70;;
83194;SDS011;73090;49.282;11.402;2024-03-02T17:29:19;21.60;;;9.55;;
83194;SDS011;73090;49.282;11.402;2024-03-02T17:33:20;14.57;;;7.93;;
83194;SDS011;73090;49.282;11.402;2024-03-02T17:37:22;29.70;;;17.65;;
83194;SDS011;73090;49.282;11.402;2024-03-02T17:41:24;31.48;;;17.55;;
83194;SDS011;73090;49.282;11.402;2024-03-02T17:45:25;96.43;;;39.65;;
83194;SDS011;73090;49.282;11.402;2024-03-02T17:49:27;46.15;;;21.20;;
83194;SDS011;73090;49.282;11.402;2024-03-02T17:53:28;95.68;;;35.22;;
83194;SDS011;73090;49.282;11.402;2024-03-02T17:57:30;71.38;;;29.73;;
83194;SDS011;73090;49.282;11.402;2024-03-02T18:01:33;53.50;;;23.67;;
83194;SDS011;73090;49.282;11.402;2024-03-02T18:05:36;25.00;;;13.10;;
83194;SDS011;73090;49.282;11.402;2024-03-02T18:09:38;29.17;;;11.68;;
83194;SDS011;73090;49.282;11.402;2024-03-02T18:13:39;19.55;;;10.02;;
83194;SDS011;73090;49.282;11.402;2024-03-02T18:17:41;25.67;;;11.10;;
83194;SDS011;73090;49.282;11.402;2024-03-02T18:21:42;24.67;;;11.40;;
83194;SDS011;73090;49.282;11.402;2024-03-02T18:25:44;32.13;;;12.07;;
83194;SDS011;73090;49.282;11.402;2024-03-02T18:29:49;24.70;;;10.38;;
83194;SDS011;73090;49.282;11.402;2024-03-02T18:33:51;25.25;;;10.57;;
83194;SDS011;73090;49.282;11.402;2024-03-02T18:37:53;17.35;;;9.40;;
83194;SDS011;73090;49.282;11.402;2024-03-02T18:41:54;20.52;;;9.65;;
83194;SDS011;73090;49.282;11.402;2024-03-02T18:45:56;28.17;;;12.30;;
83194;SDS011;73090;49.282;11.402;2024-03-02T18:49:58;22.20;;;12.10;;
83194;SDS011;73090;49.282;11.402;2024-03-02T18:54:00;26.98;;;11.45;;
83194;SDS011;73090;49.282;11.402;2024-03-02T18:58:01;25.15;;;11.30;;
83194;SDS011;73090;49.282;11.402;2024-03-02T19:02:05;27.25;;;12.27;;
83194;SDS011;73090;49.282;11.402;2024-03-02T19:06:07;22.35;;;11.00;;
83194;SDS011;73090;49.282;11.402;2024-03-02T19:10:15;24.42;;;13.05;;
83194;SDS011;73090;49.282;11.402;2024-03-02T19:14:17;30.83;;;13.45;;
83194;SDS011;73090;49.282;11.402;2024-03-02T19:18:18;21.83;;;10.75;;
83194;SDS011;73090;49.282;11.402;2024-03-02T19:22:20;27.98;;;13.38;;
83194;SDS011;73090;49.282;11.402;2024-03-02T19:26:24;20.50;;;10.23;;
83194;SDS011;73090;49.282;11.402;2024-03-02T19:30:27;24.42;;;10.65;;
83194;SDS011;73090;49.282;11.402;2024-03-02T19:34:29;22.23;;;11.63;;
83194;SDS011;73090;49.282;11.402;2024-03-02T19:38:31;21.70;;;11.10;;
83194;SDS011;73090;49.282;11.402;2024-03-02T19:42:36;23.40;;;12.23;;
83194;SDS011;73090;49.282;11.402;2024-03-02T19:46:40;25.10;;;12.52;;
83194;SDS011;73090;49.282;11.402;2024-03-02T19:50:41;22.65;;;11.20;;
83194;SDS011;73090;49.282;11.402;2024-03-02T19:54:44;19.70;;;10.80;;
83194;SDS011;73090;49.282;11.402;2024-03-02T19:58:46;25.70;;;12.57;;
83194;SDS011;73090;49.282;11.402;2024-03-02T20:02:47;18.55;;;11.30;;
83194;SDS011;73090;49.282;11.402;2024-03-02T20:06:52;21.75;;;11.65;;
83194;SDS011;73090;49.282;11.402;2024-03-02T20:10:55;20.67;;;13.10;;
83194;SDS011;73090;49.282;11.402;2024-03-02T20:14:56;19.52;;;10.13;;
83194;SDS011;73090;49.282;11.402;2024-03-02T20:18:59;21.98;;;12.23;;
83194;SDS011;73090;49.282;11.402;2024-03-02T20:23:00;19.38;;;10.77;;
83194;SDS011;73090;49.282;11.402;2024-03-02T20:27:02;28.23;;;12.27;;
83194;SDS011;73090;49.282;11.402;2024-03-02T20:31:05;22.63;;;12.60;;
83194;SDS011;73090;49.282;11.402;2024-03-02T20:35:07;21.67;;;10.77;;
83194;SDS011;73090;49.282;11.402;2024-03-02T20:39:09;22.50;;;12.52;;
83194;SDS011;73090;49.282;11.402;2024-03-02T20:43:11;20.50;;;11.63;;
83194;SDS011;73090;49.282;11.402;2024-03-02T20:47:16;20.83;;;10.68;;
83194;SDS011;73090;49.282;11.402;2024-03-02T20:51:18;23.55;;;11.77;;
83194;SDS011;73090;49.282;11.402;2024-03-02T20:55:20;19.52;;;11.35;;
83194;SDS011;73090;49.282;11.402;2024-03-02T20:59:22;23.77;;;13.02;;
83194;SDS011;73090;49.282;11.402;2024-03-02T21:03:25;19.45;;;10.57;;
83194;SDS011;73090;49.282;11.402;2024-03-02T21:07:27;20.73;;;11.57;;
83194;SDS011;73090;49.282;11.402;2024-03-02T21:11:30;23.00;;;12.50;;
83194;SDS011;73090;49.282;11.402;2024-03-02T21:15:32;20.10;;;11.35;;
83194;SDS011;73090;49.282;11.402;2024-03-02T21:19:34;24.73;;;12.07;;
83194;SDS011;73090;49.282;11.402;2024-03-02T21:23:36;21.98;;;11.82;;
83194;SDS011;73090;49.282;11.402;2024-03-02T21:27:39;20.77;;;12.10;;
83194;SDS011;73090;49.282;11.402;2024-03-02T21:31:41;24.23;;;12.32;;
83194;SDS011;73090;49.282;11.402;2024-03-02T21:35:43;26.08;;;14.40;;
83194;SDS011;73090;49.282;11.402;2024-03-02T21:39:44;22.83;;;11.73;;
83194;SDS011;73090;49.282;11.402;2024-03-02T21:43:47;21.65;;;12.10;;
83194;SDS011;73090;49.282;11.402;2024-03-02T21:47:49;21.70;;;12.00;;
83194;SDS011;73090;49.282;11.402;2024-03-02T21:51:51;26.23;;;13.10;;
83194;SDS011;73090;49.282;11.402;2024-03-02T21:55:52;24.48;;;12.43;;
83194;SDS011;73090;49.282;11.402;2024-03-02T21:59:55;21.15;;;11.95;;
83194;SDS011;73090;49.282;11.402;2024-03-02T22:03:56;23.30;;;12.98;;
83194;SDS011;73090;49.282;11.402;2024-03-02T22:07:58;20.98;;;10.32;;
83194;SDS011;73090;49.282;11.402;2024-03-02T22:12:00;23.75;;;11.60;;
83194;SDS011;73090;49.282;11.402;2024-03-02T22:16:02;22.35;;;12.93;;
83194;SDS011;73090;49.282;11.402;2024-03-02T22:20:05;25.30;;;13.15;;
83194;SDS011;73090;49.282;11.402;2024-03-02T22:24:07;19.50;;;10.18;;
83194;SDS011;73090;49.282;11.402;2024-03-02T22:28:09;27.83;;;13.27;;
83194;SDS011;73090;49.282;11.402;2024-03-02T22:32:10;27.85;;;13.40;;
83194;SDS011;73090;49.282;11.402;2024-03-02T22:36:12;21.15;;;10.98;;
83194;SDS011;73090;49.282;11.402;2024-03-02T22:40:13;27.42;;;11.98;;
83194;SDS011;73090;49.282;11.402;2024-03-02T22:44:15;26.27;;;12.90;;
83194;SDS011;73090;49.282;11.402;2024-03-02T22:48:17;26.23;;;13.73;;
83194;SDS011;73090;49.282;11.402;2024-03-02T22:52:19;28.20;;;13.77;;
83194;SDS011;73090;49.282;11.402;2024-03-02T22:56:21;24.40;;;13.18;;
83194;SDS011;73090;49.282;11.402;2024-03-02T23:00:25;23.70;;;12.20;;
83194;SDS011;73090;49.282;11.402;2024-03-02T23:04:38;27.10;;;12.57;;
83194;SDS011;73090;49.282;11.402;2024-03-02T23:08:40;25.23;;;12.85;;
83194;SDS011;73090;49.282;11.402;2024-03-02T23:12:42;24.75;;;12.40;;
83194;SDS011;73090;49.282;11.402;2024-03-02T23:16:44;20.98;;;11.63;;
83194;SDS011;73090;49.282;11.402;2024-03-02T23:20:46;25.48;;;12.18;;
83194;SDS011;73090;49.282;11.402;2024-03-02T23:24:48;26.65;;;12.00;;
83194;SDS011;73090;49.282;11.402;2024-03-02T23:28:50;24.00;;;12.52;;
83194;SDS011;73090;49.282;11.402;2024-03-02T23:32:52;22.10;;;12.80;;